createdAt,value
2023-02-28T00:00:08.646Z,1024.88
2023-02-28T00:01:08.202Z,1024.96
2023-02-28T00:02:07.766Z,1024.95
2023-02-28T00:03:07.570Z,1024.93
2023-02-28T00:04:08.691Z,1024.97
2023-02-28T00:05:07.980Z,1024.96
2023-02-28T00:06:08.157Z,1024.96
2023-02-28T00:07:08.351Z,1024.97
2023-02-28T00:08:09.187Z,1024.99
2023-02-28T00:09:08.701Z,1024.96
2023-02-28T00:10:09.660Z,1024.96
2023-02-28T00:11:09.653Z,1025.01
2023-02-28T00:12:09.701Z,1024.95
2023-02-28T00:13:10.165Z,1024.97
2023-02-28T00:14:11.159Z,1024.95
2023-02-28T00:15:32.588Z,1025.11
2023-02-28T00:16:11.598Z,1025.11
2023-02-28T00:17:10.707Z,1025.05
2023-02-28T00:18:10.358Z,1025.10
2023-02-28T00:19:12.152Z,1025.12
2023-02-28T00:20:12.151Z,1025.08
2023-02-28T00:21:10.946Z,1025.14
2023-02-28T00:22:12.152Z,1025.14
2023-02-28T00:23:13.658Z,1025.11
2023-02-28T00:24:11.402Z,1025.13
2023-02-28T00:25:13.025Z,1025.15
2023-02-28T00:26:12.328Z,1025.14
2023-02-28T00:27:13.721Z,1025.15
2023-02-28T00:28:12.724Z,1025.14
2023-02-28T00:29:12.358Z,1025.12
2023-02-28T00:30:13.155Z,1025.18
2023-02-28T00:31:13.619Z,1025.15
2023-02-28T00:32:14.199Z,1025.10
2023-02-28T00:33:12.971Z,1025.16
2023-02-28T00:34:13.136Z,1025.16
2023-02-28T00:35:13.290Z,1025.17
2023-02-28T00:36:13.469Z,1025.17
2023-02-28T00:37:14.164Z,1025.25
2023-02-28T00:38:13.791Z,1025.24
2023-02-28T00:39:13.956Z,1025.17
2023-02-28T00:40:14.124Z,1025.19
2023-02-28T00:41:14.346Z,1025.17
2023-02-28T00:42:14.537Z,1025.20
2023-02-28T00:43:14.720Z,1025.18
2023-02-28T00:44:15.699Z,1025.15
2023-02-28T00:45:15.094Z,1025.13
2023-02-28T00:46:15.320Z,1025.12
2023-02-28T00:47:15.446Z,1025.12
2023-02-28T00:48:16.658Z,1025.03
2023-02-28T00:49:15.806Z,1025.04
2023-02-28T00:50:16.660Z,1025.10
2023-02-28T00:51:16.711Z,1025.07
2023-02-28T00:52:16.420Z,1025.12
2023-02-28T00:53:17.196Z,1025.14
2023-02-28T00:54:17.662Z,1025.11
2023-02-28T00:55:17.055Z,1025.16
2023-02-28T00:56:17.247Z,1025.18
2023-02-28T00:57:17.463Z,1025.20
2023-02-28T00:58:18.520Z,1025.16
2023-02-28T00:59:18.702Z,1025.21
2023-02-28T01:00:18.221Z,1025.23
2023-02-28T01:01:18.738Z,1025.26
2023-02-28T01:02:18.293Z,1025.28
2023-02-28T01:03:18.460Z,1025.28
2023-02-28T01:04:18.671Z,1025.24
2023-02-28T01:05:18.848Z,1025.30
2023-02-28T01:06:19.013Z,1025.25
2023-02-28T01:07:19.217Z,1025.16
2023-02-28T01:08:20.671Z,1025.26
2023-02-28T01:09:20.201Z,1025.25
2023-02-28T01:10:19.745Z,1025.26
2023-02-28T01:11:19.929Z,1025.27
2023-02-28T01:12:20.070Z,1025.34
2023-02-28T01:13:20.217Z,1025.26
2023-02-28T01:14:20.370Z,1025.26
2023-02-28T01:15:20.565Z,1025.33
2023-02-28T01:16:20.736Z,1025.34
2023-02-28T01:17:20.906Z,1025.37
2023-02-28T01:18:21.097Z,1025.33
2023-02-28T01:19:23.172Z,1025.36
2023-02-28T01:20:23.167Z,1025.33
2023-02-28T01:21:21.543Z,1025.36
2023-02-28T01:22:22.664Z,1025.32
2023-02-28T01:23:22.217Z,1025.40
2023-02-28T01:24:22.006Z,1025.32
2023-02-28T01:25:22.763Z,1025.39
2023-02-28T01:26:22.330Z,1025.41
2023-02-28T01:27:23.027Z,1025.39
2023-02-28T01:28:22.699Z,1025.40
2023-02-28T01:29:22.917Z,1025.33
2023-02-28T01:30:24.668Z,1025.41
2023-02-28T01:31:24.237Z,1025.42
2023-02-28T01:32:23.525Z,1025.37
2023-02-28T01:33:23.702Z,1025.43
2023-02-28T01:34:23.883Z,1025.40
2023-02-28T01:35:24.032Z,1025.45
2023-02-28T01:36:25.167Z,1025.46
2023-02-28T01:37:25.205Z,1025.43
2023-02-28T01:38:24.567Z,1025.50
2023-02-28T01:39:24.831Z,1025.44
2023-02-28T01:40:24.992Z,1025.55
2023-02-28T01:41:25.135Z,1025.44
2023-02-28T01:42:26.174Z,1025.52
2023-02-28T01:43:25.419Z,1025.49
2023-02-28T01:44:25.558Z,1025.50
2023-02-28T01:45:26.666Z,1025.42
2023-02-28T01:46:26.798Z,1025.50
2023-02-28T01:47:26.057Z,1025.48
2023-02-28T01:48:27.219Z,1025.44
2023-02-28T01:49:26.356Z,1025.45
2023-02-28T01:50:27.203Z,1025.43
2023-02-28T01:51:28.911Z,1025.48
2023-02-28T01:52:26.917Z,1025.48
2023-02-28T01:53:27.666Z,1025.45
2023-02-28T01:54:27.337Z,1025.43
2023-02-28T01:55:28.662Z,1025.47
2023-02-28T01:56:27.657Z,1025.43
2023-02-28T01:57:28.212Z,1025.43
2023-02-28T01:58:27.976Z,1025.41
2023-02-28T01:59:28.114Z,1025.42
2023-02-28T02:00:29.164Z,1025.44
2023-02-28T02:01:28.903Z,1025.44
2023-02-28T02:02:28.689Z,1025.46
2023-02-28T02:03:28.727Z,1025.39
2023-02-28T02:04:28.874Z,1025.50
2023-02-28T02:05:29.699Z,1025.44
2023-02-28T02:06:29.198Z,1025.43
2023-02-28T02:07:29.370Z,1025.44
2023-02-28T02:08:30.032Z,1025.42
2023-02-28T02:09:31.530Z,1025.38
2023-02-28T02:10:29.863Z,1025.45
2023-02-28T02:11:30.363Z,1025.41
2023-02-28T02:12:31.167Z,1025.40
2023-02-28T02:13:31.168Z,1025.40
2023-02-28T02:14:30.428Z,1025.49
2023-02-28T02:15:30.598Z,1025.46
2023-02-28T02:16:30.778Z,1025.45
2023-02-28T02:17:31.708Z,1025.44
2023-02-28T02:18:31.129Z,1025.46
2023-02-28T02:19:31.304Z,1025.43
2023-02-28T02:20:31.485Z,1025.45
2023-02-28T02:21:31.901Z,1025.45
2023-02-28T02:22:31.824Z,1025.43
2023-02-28T02:23:32.017Z,1025.45
2023-02-28T02:24:32.202Z,1025.50
2023-02-28T02:25:32.385Z,1025.45
2023-02-28T02:26:32.573Z,1025.47
2023-02-28T02:27:32.777Z,1025.48
2023-02-28T02:28:33.677Z,1025.45
2023-02-28T02:29:33.671Z,1025.55
2023-02-28T02:30:34.167Z,1025.56
2023-02-28T02:31:33.637Z,1025.58
2023-02-28T02:32:33.711Z,1025.55
2023-02-28T02:33:33.899Z,1025.53
2023-02-28T02:34:34.681Z,1025.54
2023-02-28T02:35:34.265Z,1025.56
2023-02-28T02:36:34.338Z,1025.56
2023-02-28T02:37:34.503Z,1025.55
2023-02-28T02:38:34.678Z,1025.54
2023-02-28T02:39:36.172Z,1025.50
2023-02-28T02:40:36.032Z,1025.56
2023-02-28T02:41:35.203Z,1025.53
2023-02-28T02:42:35.396Z,1025.55
2023-02-28T02:43:35.565Z,1025.52
2023-02-28T02:44:35.759Z,1025.53
2023-02-28T02:45:35.927Z,1025.51
2023-02-28T02:46:37.576Z,1025.54
2023-02-28T02:47:36.365Z,1025.48
2023-02-28T02:48:36.531Z,1025.53
2023-02-28T02:49:36.731Z,1025.54
2023-02-28T02:50:37.677Z,1025.52
2023-02-28T02:51:37.711Z,1025.49
2023-02-28T02:52:38.164Z,1025.55
2023-02-28T02:53:38.669Z,1025.55
2023-02-28T02:54:37.574Z,1025.60
2023-02-28T02:55:39.531Z,1025.59
2023-02-28T02:56:39.668Z,1025.57
2023-02-28T02:57:38.173Z,1025.59
2023-02-28T02:58:38.397Z,1025.62
2023-02-28T02:59:39.178Z,1025.62
2023-02-28T03:00:38.785Z,1025.61
2023-02-28T03:01:38.887Z,1025.61
2023-02-28T03:02:39.669Z,1025.67
2023-02-28T03:03:39.282Z,1025.67
2023-02-28T03:04:39.343Z,1025.74
2023-02-28T03:05:39.564Z,1025.68
2023-02-28T03:06:39.778Z,1025.71
2023-02-28T03:07:39.979Z,1025.69
2023-02-28T03:08:40.196Z,1025.69
2023-02-28T03:09:41.671Z,1025.72
2023-02-28T03:10:41.169Z,1025.65
2023-02-28T03:11:40.703Z,1025.65
2023-02-28T03:12:40.884Z,1025.67
2023-02-28T03:13:42.043Z,1025.65
2023-02-28T03:14:41.192Z,1025.62
2023-02-28T03:15:41.396Z,1025.60
2023-02-28T03:16:41.594Z,1025.61
2023-02-28T03:17:42.669Z,1025.64
2023-02-28T03:18:41.952Z,1025.67
2023-02-28T03:19:42.132Z,1025.64
2023-02-28T03:20:42.332Z,1025.63
2023-02-28T03:21:42.500Z,1025.64
2023-02-28T03:22:42.662Z,1025.63
2023-02-28T03:23:44.537Z,1025.58
2023-02-28T03:24:43.035Z,1025.62
2023-02-28T03:25:43.193Z,1025.62
2023-02-28T03:26:44.676Z,1025.54
2023-02-28T03:27:43.600Z,1025.57
2023-02-28T03:28:43.771Z,1025.60
2023-02-28T03:29:43.939Z,1025.58
2023-02-28T03:30:44.101Z,1025.56
2023-02-28T03:31:44.791Z,1025.59
2023-02-28T03:32:44.733Z,1025.58
2023-02-28T03:33:44.651Z,1025.61
2023-02-28T03:34:44.810Z,1025.68
2023-02-28T03:35:44.984Z,1025.58
2023-02-28T03:36:46.286Z,1025.64
2023-02-28T03:37:46.042Z,1025.64
2023-02-28T03:38:45.743Z,1025.70
2023-02-28T03:39:47.177Z,1025.63
2023-02-28T03:40:45.922Z,1025.56
2023-02-28T03:41:46.082Z,1025.57
2023-02-28T03:42:46.248Z,1025.60
2023-02-28T03:43:46.437Z,1025.65
2023-02-28T03:44:48.044Z,1025.65
2023-02-28T03:45:46.799Z,1025.62
2023-02-28T03:46:46.981Z,1025.62
2023-02-28T03:47:47.702Z,1025.65
2023-02-28T03:48:47.376Z,1025.70
2023-02-28T03:49:48.222Z,1025.71
2023-02-28T03:50:47.754Z,1025.67
2023-02-28T03:51:47.913Z,1025.71
2023-02-28T03:52:48.062Z,1025.69
2023-02-28T03:53:48.278Z,1025.75
2023-02-28T03:54:49.190Z,1025.72
2023-02-28T03:55:48.573Z,1025.71
2023-02-28T03:56:49.682Z,1025.71
2023-02-28T03:57:48.948Z,1025.73
2023-02-28T03:58:50.680Z,1025.76
2023-02-28T03:59:49.307Z,1025.77
2023-02-28T04:00:49.478Z,1025.75
2023-02-28T04:01:51.718Z,1025.80
2023-02-28T04:02:50.727Z,1025.79
2023-02-28T04:03:50.000Z,1025.76
2023-02-28T04:04:51.723Z,1025.76
2023-02-28T04:05:50.401Z,1025.73
2023-02-28T04:06:51.597Z,1025.82
2023-02-28T04:07:53.684Z,1025.84
2023-02-28T04:08:51.028Z,1025.79
2023-02-28T04:09:52.683Z,1025.76
2023-02-28T04:10:52.682Z,1025.74
2023-02-28T04:11:52.190Z,1025.77
2023-02-28T04:12:51.614Z,1025.79
2023-02-28T04:13:51.801Z,1025.77
2023-02-28T04:14:52.680Z,1025.78
2023-02-28T04:15:52.738Z,1025.73
2023-02-28T04:16:52.405Z,1025.71
2023-02-28T04:17:52.549Z,1025.77
2023-02-28T04:18:53.702Z,1025.77
2023-02-28T04:19:52.846Z,1025.74
2023-02-28T04:20:53.733Z,1025.78
2023-02-28T04:21:53.125Z,1025.78
2023-02-28T04:22:54.189Z,1025.81
2023-02-28T04:23:54.249Z,1025.76
2023-02-28T04:24:53.742Z,1025.76
2023-02-28T04:25:53.766Z,1025.74
2023-02-28T04:26:53.926Z,1025.82
2023-02-28T04:27:54.071Z,1025.88
2023-02-28T04:28:54.238Z,1025.83
2023-02-28T04:29:54.422Z,1025.79
2023-02-28T04:30:56.184Z,1025.79
2023-02-28T04:31:54.915Z,1025.78
2023-02-28T04:32:54.910Z,1025.82
2023-02-28T04:33:55.066Z,1025.79
2023-02-28T04:34:55.227Z,1025.79
2023-02-28T04:35:55.386Z,1025.83
2023-02-28T04:37:11.813Z,1025.86
2023-02-28T04:37:57.774Z,1025.81
2023-02-28T04:38:55.917Z,1025.80
2023-02-28T04:39:56.116Z,1025.87
2023-02-28T04:40:56.282Z,1025.85
2023-02-28T04:41:57.198Z,1025.87
2023-02-28T04:42:57.692Z,1025.87
2023-02-28T04:43:56.816Z,1025.92
2023-02-28T04:44:57.027Z,1025.87
2023-02-28T04:45:57.246Z,1025.96
2023-02-28T04:46:57.372Z,1025.95
2023-02-28T04:47:58.537Z,1025.92
2023-02-28T04:48:58.193Z,1025.95
2023-02-28T04:49:57.862Z,1025.90
2023-02-28T04:50:58.691Z,1026.03
2023-02-28T04:51:58.206Z,1026.01
2023-02-28T04:52:59.061Z,1026.01
2023-02-28T04:53:58.466Z,1025.95
2023-02-28T04:54:59.182Z,1025.94
2023-02-28T04:55:58.832Z,1025.98
2023-02-28T04:56:59.020Z,1025.95
2023-02-28T04:58:00.229Z,1026.02
2023-02-28T04:59:00.182Z,1025.96
2023-02-28T04:59:59.566Z,1026.02
2023-02-28T05:00:59.733Z,1026.01
2023-02-28T05:02:00.781Z,1025.99
2023-02-28T05:03:00.769Z,1026.03
2023-02-28T05:04:01.049Z,1025.99
2023-02-28T05:05:00.512Z,1026.09
2023-02-28T05:06:00.615Z,1026.01
2023-02-28T05:07:00.801Z,1026.07
2023-02-28T05:08:01.112Z,1026.04
2023-02-28T05:09:01.151Z,1026.06
2023-02-28T05:10:05.466Z,1026.07
2023-02-28T05:11:02.187Z,1026.08
2023-02-28T05:12:01.680Z,1026.04
2023-02-28T05:13:02.686Z,1026.07
2023-02-28T05:14:04.211Z,1026.03
2023-02-28T05:15:02.220Z,1026.02
2023-02-28T05:16:04.212Z,1026.06
2023-02-28T05:17:03.190Z,1026.11
2023-02-28T05:18:02.724Z,1026.08
2023-02-28T05:19:02.965Z,1026.08
2023-02-28T05:20:14.601Z,1026.03
2023-02-28T05:21:05.233Z,1026.06
2023-02-28T05:22:05.190Z,1026.07
2023-02-28T05:23:05.195Z,1026.01
2023-02-28T05:24:05.196Z,1026.08
2023-02-28T05:25:04.709Z,1026.05
2023-02-28T05:26:03.996Z,1026.08
2023-02-28T05:27:04.181Z,1026.03
2023-02-28T05:28:04.329Z,1026.04
2023-02-28T05:29:04.475Z,1026.02
2023-02-28T05:30:05.185Z,1026.09
2023-02-28T05:31:04.845Z,1026.07
2023-02-28T05:32:05.128Z,1026.12
2023-02-28T05:33:05.241Z,1026.14
2023-02-28T05:34:06.246Z,1026.18
2023-02-28T05:35:05.645Z,1026.14
2023-02-28T05:36:05.834Z,1026.11
2023-02-28T05:37:06.013Z,1026.12
2023-02-28T05:38:06.187Z,1026.13
2023-02-28T05:39:07.187Z,1026.10
2023-02-28T05:40:06.580Z,1026.11
2023-02-28T05:41:06.783Z,1026.14
2023-02-28T05:42:07.251Z,1026.15
2023-02-28T05:43:07.176Z,1026.08
2023-02-28T05:44:07.352Z,1026.14
2023-02-28T05:45:07.526Z,1026.20
2023-02-28T05:46:07.791Z,1026.17
2023-02-28T05:47:08.881Z,1026.19
2023-02-28T05:48:08.729Z,1026.19
2023-02-28T05:49:08.788Z,1026.16
2023-02-28T05:50:09.461Z,1026.16
2023-02-28T05:51:08.632Z,1026.17
2023-02-28T05:52:08.834Z,1026.16
2023-02-28T05:53:09.022Z,1026.17
2023-02-28T05:54:09.210Z,1026.17
2023-02-28T05:55:09.399Z,1026.22
2023-02-28T05:56:10.203Z,1026.20
2023-02-28T05:57:15.674Z,1026.24
2023-02-28T05:58:11.866Z,1026.19
2023-02-28T05:59:10.275Z,1026.15
2023-02-28T06:00:10.740Z,1026.17
2023-02-28T06:01:11.239Z,1026.22
2023-02-28T06:02:11.207Z,1026.25
2023-02-28T06:03:10.780Z,1026.23
2023-02-28T06:04:19.381Z,1026.22
2023-02-28T06:05:13.090Z,1026.25
2023-02-28T06:06:12.337Z,1026.26
2023-02-28T06:07:11.542Z,1026.19
2023-02-28T06:08:12.689Z,1026.23
2023-02-28T06:09:11.962Z,1026.27
2023-02-28T06:10:12.185Z,1026.23
2023-02-28T06:11:12.365Z,1026.21
2023-02-28T06:12:13.701Z,1026.28
2023-02-28T06:13:12.751Z,1026.23
2023-02-28T06:14:13.746Z,1026.19
2023-02-28T06:15:13.696Z,1026.26
2023-02-28T06:16:15.143Z,1026.21
2023-02-28T06:17:13.566Z,1026.20
2023-02-28T06:18:13.775Z,1026.25
2023-02-28T06:19:13.965Z,1026.17
2023-02-28T06:20:14.712Z,1026.20
2023-02-28T06:21:14.383Z,1026.31
2023-02-28T06:22:15.251Z,1026.23
2023-02-28T06:23:15.698Z,1026.20
2023-02-28T06:24:16.207Z,1026.14
2023-02-28T06:25:15.083Z,1026.10
2023-02-28T06:26:16.240Z,1026.12
2023-02-28T06:27:15.392Z,1026.15
2023-02-28T06:28:16.205Z,1026.03
2023-02-28T06:29:16.646Z,1026.09
2023-02-28T06:30:15.891Z,1026.07
2023-02-28T06:31:16.090Z,1026.08
2023-02-28T06:32:17.388Z,1026.00
2023-02-28T06:33:16.434Z,1026.11
2023-02-28T06:34:16.756Z,1026.06
2023-02-28T06:35:16.907Z,1026.05
2023-02-28T06:36:17.751Z,1026.03
2023-02-28T06:37:17.149Z,1025.99
2023-02-28T06:38:18.202Z,1026.04
2023-02-28T06:39:17.483Z,1026.01
2023-02-28T06:40:17.753Z,1026.02
2023-02-28T06:41:18.702Z,1025.99
2023-02-28T06:42:17.972Z,1025.91
2023-02-28T06:43:18.159Z,1025.93
2023-02-28T06:44:18.761Z,1025.96
2023-02-28T06:45:18.554Z,1025.92
2023-02-28T06:46:18.771Z,1025.97
2023-02-28T06:47:18.839Z,1025.97
2023-02-28T06:48:19.022Z,1025.96
2023-02-28T06:49:19.219Z,1025.96
2023-02-28T06:50:19.400Z,1025.84
2023-02-28T06:51:19.607Z,1025.87
2023-02-28T06:52:20.746Z,1025.87
2023-02-28T06:53:20.746Z,1025.85
2023-02-28T06:54:20.164Z,1025.82
2023-02-28T06:55:20.788Z,1025.82
2023-02-28T06:56:20.498Z,1025.81
2023-02-28T06:57:20.692Z,1025.82
2023-02-28T06:58:20.975Z,1025.76
2023-02-28T06:59:22.780Z,1025.70
2023-02-28T07:00:21.187Z,1025.64
2023-02-28T07:01:21.408Z,1025.61
2023-02-28T07:02:22.259Z,1025.62
2023-02-28T07:03:23.155Z,1025.54
2023-02-28T07:04:22.738Z,1025.54
2023-02-28T07:05:22.193Z,1025.53
2023-02-28T07:06:22.353Z,1025.30
2023-02-28T07:07:22.509Z,1024.83
2023-02-28T07:08:24.212Z,1024.11
2023-02-28T07:09:23.749Z,1023.17
2023-02-28T07:10:23.054Z,1022.24
2023-02-28T07:11:23.278Z,1021.47
2023-02-28T07:12:24.212Z,1020.81
2023-02-28T07:13:23.605Z,1020.24
2023-02-28T07:14:24.709Z,1019.88
2023-02-28T07:15:24.259Z,1019.34
2023-02-28T07:16:24.210Z,1019.00
2023-02-28T07:17:24.385Z,1018.59
2023-02-28T07:18:24.558Z,1018.25
2023-02-28T07:19:24.755Z,1017.88
2023-02-28T07:20:24.915Z,1017.59
2023-02-28T07:21:25.122Z,1017.34
2023-02-28T07:22:27.209Z,1017.07
2023-02-28T07:23:25.459Z,1016.82
2023-02-28T07:24:25.603Z,1016.67
2023-02-28T07:25:25.775Z,1017.37
2023-02-28T07:26:26.730Z,1017.80
2023-02-28T07:27:26.118Z,1017.67
2023-02-28T07:28:26.281Z,1017.60
2023-02-28T07:29:26.433Z,1017.08
2023-02-28T07:30:27.215Z,1016.57
2023-02-28T07:31:28.262Z,1016.29
2023-02-28T07:32:27.778Z,1015.91
2023-02-28T07:33:27.711Z,1015.74
2023-02-28T07:34:27.232Z,1015.45
2023-02-28T07:35:27.412Z,1015.52
2023-02-28T07:36:29.214Z,1015.86
2023-02-28T07:37:28.720Z,1016.32
2023-02-28T07:38:27.830Z,1016.47
2023-02-28T07:39:28.751Z,1016.59
2023-02-28T07:40:28.254Z,1016.64
2023-02-28T07:41:29.626Z,1016.29
2023-02-28T07:42:29.219Z,1015.80
2023-02-28T07:43:29.214Z,1015.53
2023-02-28T07:44:30.578Z,1015.25
2023-02-28T07:45:29.766Z,1015.26
2023-02-28T07:46:30.747Z,1015.98
2023-02-28T07:47:31.227Z,1016.56
2023-02-28T07:48:29.486Z,1017.07
2023-02-28T07:49:29.657Z,1017.53
2023-02-28T07:50:29.844Z,1017.93
2023-02-28T07:51:31.045Z,1018.19
2023-02-28T07:52:30.205Z,1018.45
2023-02-28T07:53:30.381Z,1018.71
2023-02-28T07:54:30.563Z,1018.92
2023-02-28T07:55:31.277Z,1019.19
2023-02-28T07:56:31.258Z,1019.49
2023-02-28T07:57:33.670Z,1019.69
2023-02-28T07:58:32.265Z,1019.96
2023-02-28T07:59:32.408Z,1020.12
2023-02-28T08:00:33.313Z,1020.35
2023-02-28T08:01:33.846Z,1020.57
2023-02-28T08:02:33.228Z,1020.80
2023-02-28T08:03:32.149Z,1021.06
2023-02-28T08:04:32.407Z,1021.25
2023-02-28T08:05:32.560Z,1021.39
2023-02-28T08:06:32.765Z,1021.47
2023-02-28T08:07:32.946Z,1021.62
2023-02-28T08:08:33.738Z,1021.78
2023-02-28T08:09:33.300Z,1021.88
2023-02-28T08:10:33.474Z,1021.93
2023-02-28T08:11:33.664Z,1022.04
2023-02-28T08:12:33.864Z,1022.17
2023-02-28T08:13:34.117Z,1022.20
2023-02-28T08:14:35.233Z,1022.31
2023-02-28T08:15:34.517Z,1022.36
2023-02-28T08:16:34.742Z,1022.42
2023-02-28T08:17:35.769Z,1022.48
2023-02-28T08:18:35.093Z,1022.51
2023-02-28T08:19:35.275Z,1022.54
2023-02-28T08:20:35.468Z,1022.49
2023-02-28T08:21:36.240Z,1022.18
2023-02-28T08:22:35.781Z,1021.20
2023-02-28T08:23:36.000Z,1020.44
2023-02-28T08:24:36.733Z,1019.64
2023-02-28T08:25:36.421Z,1018.88
2023-02-28T08:26:36.604Z,1018.37
2023-02-28T08:27:37.731Z,1017.88
2023-02-28T08:28:37.004Z,1017.66
2023-02-28T08:29:37.193Z,1017.40
2023-02-28T08:30:37.379Z,1017.13
2023-02-28T08:31:37.564Z,1016.76
2023-02-28T08:32:37.853Z,1016.49
2023-02-28T08:33:38.772Z,1016.13
2023-02-28T08:34:38.083Z,1015.87
2023-02-28T08:35:38.375Z,1015.68
2023-02-28T08:36:38.531Z,1015.45
2023-02-28T08:37:39.595Z,1015.20
2023-02-28T08:38:39.926Z,1015.01
2023-02-28T08:39:39.915Z,1014.84
2023-02-28T08:40:39.127Z,1014.73
2023-02-28T08:41:39.737Z,1014.71
2023-02-28T08:42:39.402Z,1015.43
2023-02-28T08:43:39.578Z,1016.06
2023-02-28T08:44:40.282Z,1016.56
2023-02-28T08:45:40.024Z,1016.98
2023-02-28T08:46:40.147Z,1017.42
2023-02-28T08:47:41.237Z,1017.38
2023-02-28T08:48:42.237Z,1017.22
2023-02-28T08:49:40.751Z,1017.03
2023-02-28T08:50:43.905Z,1016.58
2023-02-28T08:51:42.106Z,1016.40
2023-02-28T08:52:42.238Z,1016.16
2023-02-28T08:53:41.388Z,1016.08
2023-02-28T08:54:41.591Z,1016.15
2023-02-28T08:55:41.775Z,1016.43
2023-02-28T08:56:41.998Z,1016.89
2023-02-28T08:57:42.236Z,1017.25
2023-02-28T08:58:42.438Z,1017.62
2023-02-28T08:59:44.234Z,1017.92
2023-02-28T09:00:42.780Z,1018.22
2023-02-28T09:01:42.987Z,1018.64
2023-02-28T09:02:43.177Z,1018.95
2023-02-28T09:03:43.349Z,1019.24
2023-02-28T09:04:43.585Z,1019.47
2023-02-28T09:05:43.777Z,1019.82
2023-02-28T09:06:44.777Z,1020.10
2023-02-28T09:07:44.070Z,1020.24
2023-02-28T09:08:44.225Z,1020.51
2023-02-28T09:09:45.410Z,1020.67
2023-02-28T09:10:44.573Z,1020.89
2023-02-28T09:11:44.742Z,1021.10
2023-02-28T09:12:45.775Z,1021.23
2023-02-28T09:13:45.735Z,1021.31
2023-02-28T09:14:46.732Z,1021.44
2023-02-28T09:15:45.512Z,1021.57
2023-02-28T09:16:45.713Z,1021.72
2023-02-28T09:17:47.200Z,1021.86
2023-02-28T09:18:47.732Z,1021.84
2023-02-28T09:19:47.231Z,1021.89
2023-02-28T09:20:46.398Z,1021.93
2023-02-28T09:21:46.812Z,1022.04
2023-02-28T09:22:47.735Z,1022.13
2023-02-28T09:23:46.888Z,1022.16
2023-02-28T09:24:47.101Z,1022.27
2023-02-28T09:25:49.252Z,1022.33
2023-02-28T09:26:56.784Z,1022.43
2023-02-28T09:27:49.673Z,1022.51
2023-02-28T09:28:48.737Z,1022.51
2023-02-28T09:29:48.343Z,1022.60
2023-02-28T09:30:48.209Z,1022.68
2023-02-28T09:31:48.859Z,1022.63
2023-02-28T09:32:50.403Z,1022.72
2023-02-28T09:33:49.716Z,1022.77
2023-02-28T09:34:48.856Z,1022.83
2023-02-28T09:35:49.048Z,1022.92
2023-02-28T09:36:49.612Z,1022.95
2023-02-28T09:37:49.369Z,1022.97
2023-02-28T09:38:49.804Z,1022.95
2023-02-28T09:39:50.728Z,1022.92
2023-02-28T09:40:49.844Z,1022.84
2023-02-28T09:41:49.994Z,1022.84
2023-02-28T09:42:50.792Z,1022.81
2023-02-28T09:43:50.310Z,1022.79
2023-02-28T09:44:50.800Z,1022.74
2023-02-28T09:45:50.713Z,1022.65
2023-02-28T09:46:51.751Z,1022.57
2023-02-28T09:47:51.131Z,1022.46
2023-02-28T09:48:52.751Z,1022.33
2023-02-28T09:49:51.413Z,1022.40
2023-02-28T09:50:51.601Z,1022.36
2023-02-28T09:51:52.744Z,1022.38
2023-02-28T09:52:52.786Z,1022.41
2023-02-28T09:53:56.685Z,1022.49
2023-02-28T09:54:54.219Z,1022.50
2023-02-28T09:55:52.335Z,1022.58
2023-02-28T09:56:52.567Z,1022.65
2023-02-28T09:57:52.764Z,1022.62
2023-02-28T09:58:55.753Z,1022.67
2023-02-28T09:59:53.106Z,1022.67
2023-02-28T10:00:53.308Z,1022.82
2023-02-28T10:01:54.861Z,1022.92
2023-02-28T10:02:53.674Z,1022.95
2023-02-28T10:03:53.849Z,1022.96
2023-02-28T10:04:54.796Z,1023.01
2023-02-28T10:05:54.215Z,1023.00
2023-02-28T10:06:54.803Z,1023.02
2023-02-28T10:07:55.295Z,1023.07
2023-02-28T10:08:54.791Z,1023.11
2023-02-28T10:09:54.965Z,1023.11
2023-02-28T10:10:55.788Z,1023.14
2023-02-28T10:11:56.987Z,1023.12
2023-02-28T10:12:55.531Z,1023.19
2023-02-28T10:13:56.247Z,1023.04
2023-02-28T10:14:56.797Z,1022.95
2023-02-28T10:15:56.156Z,1023.10
2023-02-28T10:16:56.242Z,1022.95
2023-02-28T10:18:08.423Z,1022.92
2023-02-28T10:18:58.529Z,1022.83
2023-02-28T10:19:56.754Z,1022.89
2023-02-28T10:20:57.753Z,1022.80
2023-02-28T10:21:57.141Z,1022.75
2023-02-28T10:22:57.311Z,1022.74
2023-02-28T10:23:57.537Z,1022.60
2023-02-28T10:24:58.296Z,1022.69
2023-02-28T10:25:57.856Z,1022.62
2023-02-28T10:26:59.646Z,1022.66
2023-02-28T10:27:58.324Z,1022.61
2023-02-28T10:28:59.253Z,1022.56
2023-02-28T10:29:59.297Z,1022.48
2023-02-28T10:31:00.279Z,1022.42
2023-02-28T10:32:00.268Z,1022.23
2023-02-28T10:32:59.184Z,1022.11
2023-02-28T10:34:01.293Z,1022.13
2023-02-28T10:34:59.560Z,1022.05
2023-02-28T10:35:59.772Z,1022.06
2023-02-28T10:36:59.990Z,1022.01
2023-02-28T10:38:00.143Z,1021.95
2023-02-28T10:39:01.257Z,1021.96
2023-02-28T10:40:00.885Z,1021.98
2023-02-28T10:41:00.669Z,1021.93
2023-02-28T10:42:00.838Z,1022.02
2023-02-28T10:43:01.058Z,1021.96
2023-02-28T10:44:01.237Z,1021.98
2023-02-28T10:45:01.457Z,1022.02
2023-02-28T10:46:02.147Z,1021.93
2023-02-28T10:47:01.826Z,1021.99
2023-02-28T10:48:02.011Z,1021.89
2023-02-28T10:49:03.271Z,1021.96
2023-02-28T10:50:02.423Z,1021.83
2023-02-28T10:51:02.632Z,1021.85
2023-02-28T10:52:02.851Z,1021.67
2023-02-28T10:53:05.090Z,1021.52
2023-02-28T10:54:04.300Z,1021.52
2023-02-28T10:55:03.444Z,1021.25
2023-02-28T10:56:03.664Z,1021.06
2023-02-28T10:57:03.846Z,1020.88
2023-02-28T10:58:04.048Z,1020.60
2023-02-28T10:59:04.767Z,1020.39
2023-02-28T11:00:04.433Z,1020.22
2023-02-28T11:01:04.677Z,1020.07
2023-02-28T11:02:07.418Z,1019.87
2023-02-28T11:03:05.810Z,1019.78
2023-02-28T11:04:05.320Z,1019.53
2023-02-28T11:05:05.352Z,1019.46
2023-02-28T11:06:06.324Z,1019.42
2023-02-28T11:07:05.640Z,1019.24
2023-02-28T11:08:06.815Z,1019.16
2023-02-28T11:09:06.039Z,1019.03
2023-02-28T11:10:06.262Z,1019.02
2023-02-28T11:11:07.300Z,1018.95
2023-02-28T11:12:06.826Z,1018.94
2023-02-28T11:13:07.314Z,1018.89
2023-02-28T11:14:08.761Z,1018.78
2023-02-28T11:15:07.808Z,1018.80
2023-02-28T11:16:08.798Z,1018.79
2023-02-28T11:17:09.757Z,1018.98
2023-02-28T11:18:07.901Z,1019.07
2023-02-28T11:19:08.099Z,1019.23
2023-02-28T11:20:08.294Z,1019.53
2023-02-28T11:21:08.360Z,1019.58
2023-02-28T11:22:08.564Z,1019.70
2023-02-28T11:23:08.715Z,1019.91
2023-02-28T11:24:08.854Z,1020.16
2023-02-28T11:25:09.766Z,1020.14
2023-02-28T11:26:09.152Z,1020.17
2023-02-28T11:27:09.347Z,1020.25
2023-02-28T11:28:09.526Z,1020.34
2023-02-28T11:29:09.682Z,1020.56
2023-02-28T11:30:10.764Z,1020.60
2023-02-28T11:31:10.064Z,1020.58
2023-02-28T11:32:10.446Z,1020.60
2023-02-28T11:33:10.492Z,1020.62
2023-02-28T11:34:11.261Z,1020.62
2023-02-28T11:35:11.625Z,1020.67
2023-02-28T11:36:12.817Z,1020.68
2023-02-28T11:37:11.220Z,1020.72
2023-02-28T11:38:12.430Z,1020.81
2023-02-28T11:39:11.584Z,1020.80
2023-02-28T11:40:11.749Z,1020.84
2023-02-28T11:41:12.828Z,1020.87
2023-02-28T11:42:12.800Z,1020.84
2023-02-28T11:43:13.628Z,1020.85
2023-02-28T11:44:12.419Z,1020.91
2023-02-28T11:45:12.576Z,1020.87
2023-02-28T11:46:12.781Z,1020.82
2023-02-28T11:47:12.939Z,1020.81
2023-02-28T11:48:14.762Z,1020.92
2023-02-28T11:49:14.264Z,1020.86
2023-02-28T11:50:13.406Z,1020.89
2023-02-28T11:51:13.587Z,1020.92
2023-02-28T11:52:13.728Z,1020.92
2023-02-28T11:53:14.803Z,1020.86
2023-02-28T11:54:14.323Z,1020.79
2023-02-28T11:55:14.221Z,1020.88
2023-02-28T11:56:14.409Z,1020.91
2023-02-28T11:57:15.339Z,1020.89
2023-02-28T11:58:14.723Z,1021.00
2023-02-28T11:59:16.273Z,1020.95
2023-02-28T12:00:15.048Z,1021.12
2023-02-28T12:01:15.831Z,1020.90
2023-02-28T12:02:16.165Z,1021.04
2023-02-28T12:03:15.512Z,1020.94
2023-02-28T12:04:15.683Z,1020.88
2023-02-28T12:05:15.854Z,1020.94
2023-02-28T12:06:16.334Z,1020.84
2023-02-28T12:07:18.274Z,1021.13